sensor_id;sensor_type;location;lat;lon;timestamp;temperature;humidity
33865;DHT22;20159;51.072;13.526;2023-02-28T00:00:43;2.10;91.80
33865;DHT22;20159;51.072;13.526;2023-02-28T00:03:09;2.10;92.00
33865;DHT22;20159;51.072;13.526;2023-02-28T00:05:35;2.10;91.90
33865;DHT22;20159;51.072;13.526;2023-02-28T00:08:00;2.10;92.00
33865;DHT22;20159;51.072;13.526;2023-02-28T00:10:28;2.10;91.90
33865;DHT22;20159;51.072;13.526;2023-02-28T00:12:58;2.10;91.80
33865;DHT22;20159;51.072;13.526;2023-02-28T00:15:24;2.20;91.60
33865;DHT22;20159;51.072;13.526;2023-02-28T00:17:50;2.10;91.60
33865;DHT22;20159;51.072;13.526;2023-02-28T00:20:16;2.20;91.50
33865;DHT22;20159;51.072;13.526;2023-02-28T00:22:44;2.20;91.60
33865;DHT22;20159;51.072;13.526;2023-02-28T00:25:12;2.20;91.70
33865;DHT22;20159;51.072;13.526;2023-02-28T00:27:38;2.20;91.50
33865;DHT22;20159;51.072;13.526;2023-02-28T00:30:06;2.20;91.30
33865;DHT22;20159;51.072;13.526;2023-02-28T00:32:32;2.20;91.30
33865;DHT22;20159;51.072;13.526;2023-02-28T00:34:59;2.20;91.30
33865;DHT22;20159;51.072;13.526;2023-02-28T00:37:25;2.20;91.30
33865;DHT22;20159;51.072;13.526;2023-02-28T00:39:50;2.20;91.40
33865;DHT22;20159;51.072;13.526;2023-02-28T00:42:16;2.20;91.20
33865;DHT22;20159;51.072;13.526;2023-02-28T00:44:41;2.20;91.10
33865;DHT22;20159;51.072;13.526;2023-02-28T00:47:07;2.20;90.90
33865;DHT22;20159;51.072;13.526;2023-02-28T00:49:33;2.20;90.60
33865;DHT22;20159;51.072;13.526;2023-02-28T00:51:58;2.20;90.40
33865;DHT22;20159;51.072;13.526;2023-02-28T00:54:24;2.20;90.40
33865;DHT22;20159;51.072;13.526;2023-02-28T00:56:50;2.10;90.40
33865;DHT22;20159;51.072;13.526;2023-02-28T00:59:16;2.10;90.30
33865;DHT22;20159;51.072;13.526;2023-02-28T01:01:43;2.10;90.30
33865;DHT22;20159;51.072;13.526;2023-02-28T01:04:08;2.10;90.30
33865;DHT22;20159;51.072;13.526;2023-02-28T01:06:34;2.00;90.10
33865;DHT22;20159;51.072;13.526;2023-02-28T01:08:59;2.00;90.20
33865;DHT22;20159;51.072;13.526;2023-02-28T01:11:25;2.00;90.30
33865;DHT22;20159;51.072;13.526;2023-02-28T01:13:51;1.90;90.20
33865;DHT22;20159;51.072;13.526;2023-02-28T01:16:16;1.90;90.20
33865;DHT22;20159;51.072;13.526;2023-02-28T01:18:42;1.90;90.10
33865;DHT22;20159;51.072;13.526;2023-02-28T01:21:11;1.90;90.20
33865;DHT22;20159;51.072;13.526;2023-02-28T01:23:37;1.80;90.10
33865;DHT22;20159;51.072;13.526;2023-02-28T01:26:08;1.80;90.20
33865;DHT22;20159;51.072;13.526;2023-02-28T01:28:34;1.70;90.30
33865;DHT22;20159;51.072;13.526;2023-02-28T01:30:59;1.70;90.30
33865;DHT22;20159;51.072;13.526;2023-02-28T01:33:25;1.80;90.40
33865;DHT22;20159;51.072;13.526;2023-02-28T01:36:00;1.60;90.30
33865;DHT22;20159;51.072;13.526;2023-02-28T01:38:26;1.50;90.30
33865;DHT22;20159;51.072;13.526;2023-02-28T01:40:52;1.50;90.40
33865;DHT22;20159;51.072;13.526;2023-02-28T01:43:29;1.40;90.40
33865;DHT22;20159;51.072;13.526;2023-02-28T01:45:57;1.40;90.60
33865;DHT22;20159;51.072;13.526;2023-02-28T01:48:28;1.40;90.70
33865;DHT22;20159;51.072;13.526;2023-02-28T01:50:59;1.40;91.00
33865;DHT22;20159;51.072;13.526;2023-02-28T01:53:39;1.30;91.00
33865;DHT22;20159;51.072;13.526;2023-02-28T01:56:08;1.30;91.10
33865;DHT22;20159;51.072;13.526;2023-02-28T01:58:36;1.30;91.20
33865;DHT22;20159;51.072;13.526;2023-02-28T02:01:02;1.30;91.30
33865;DHT22;20159;51.072;13.526;2023-02-28T02:03:29;1.40;91.30
33865;DHT22;20159;51.072;13.526;2023-02-28T02:05:55;1.30;91.30
33865;DHT22;20159;51.072;13.526;2023-02-28T02:08:26;1.30;91.30
33865;DHT22;20159;51.072;13.526;2023-02-28T02:11:01;1.30;91.40
33865;DHT22;20159;51.072;13.526;2023-02-28T02:16:28;1.30;91.30
33865;DHT22;20159;51.072;13.526;2023-02-28T02:19:15;1.20;91.50
33865;DHT22;20159;51.072;13.526;2023-02-28T02:22:12;1.20;91.40
33865;DHT22;20159;51.072;13.526;2023-02-28T02:25:08;1.20;91.40
33865;DHT22;20159;51.072;13.526;2023-02-28T02:27:59;1.20;91.20
33865;DHT22;20159;51.072;13.526;2023-02-28T02:36:30;1.10;91.40
33865;DHT22;20159;51.072;13.526;2023-02-28T02:39:12;1.00;91.40
33865;DHT22;20159;51.072;13.526;2023-02-28T02:41:46;1.10;91.60
33865;DHT22;20159;51.072;13.526;2023-02-28T02:46:47;1.00;91.50
33865;DHT22;20159;51.072;13.526;2023-02-28T02:49:22;1.00;91.50
33865;DHT22;20159;51.072;13.526;2023-02-28T02:51:49;1.00;91.50
33865;DHT22;20159;51.072;13.526;2023-02-28T02:54:27;1.00;91.50
33865;DHT22;20159;51.072;13.526;2023-02-28T02:56:56;1.00;91.60
33865;DHT22;20159;51.072;13.526;2023-02-28T02:59:23;1.00;91.70
33865;DHT22;20159;51.072;13.526;2023-02-28T03:01:53;1.00;91.50
33865;DHT22;20159;51.072;13.526;2023-02-28T03:04:22;0.90;91.60
33865;DHT22;20159;51.072;13.526;2023-02-28T03:06:50;0.90;91.60
33865;DHT22;20159;51.072;13.526;2023-02-28T03:09:24;0.90;91.60
33865;DHT22;20159;51.072;13.526;2023-02-28T03:11:53;0.90;91.60
33865;DHT22;20159;51.072;13.526;2023-02-28T03:17:07;0.80;91.70
33865;DHT22;20159;51.072;13.526;2023-02-28T03:19:55;0.80;91.60
33865;DHT22;20159;51.072;13.526;2023-02-28T03:22:52;0.80;91.70
33865;DHT22;20159;51.072;13.526;2023-02-28T03:25:38;0.80;91.60
33865;DHT22;20159;51.072;13.526;2023-02-28T03:28:28;0.70;91.40
33865;DHT22;20159;51.072;13.526;2023-02-28T03:31:08;0.70;91.50
33865;DHT22;20159;51.072;13.526;2023-02-28T03:33:42;0.60;91.40
33865;DHT22;20159;51.072;13.526;2023-02-28T03:36:16;0.60;91.40
33865;DHT22;20159;51.072;13.526;2023-02-28T03:38:54;0.60;91.40
33865;DHT22;20159;51.072;13.526;2023-02-28T03:41:32;0.50;91.30
33865;DHT22;20159;51.072;13.526;2023-02-28T03:44:12;0.40;91.30
33865;DHT22;20159;51.072;13.526;2023-02-28T03:46:44;0.40;91.30
33865;DHT22;20159;51.072;13.526;2023-02-28T03:49:18;0.30;91.30
33865;DHT22;20159;51.072;13.526;2023-02-28T03:51:46;0.30;91.20
33865;DHT22;20159;51.072;13.526;2023-02-28T03:54:17;0.20;91.20
33865;DHT22;20159;51.072;13.526;2023-02-28T03:56:51;0.20;91.10
33865;DHT22;20159;51.072;13.526;2023-02-28T03:59:46;0.10;91.20
33865;DHT22;20159;51.072;13.526;2023-02-28T04:02:13;0.10;91.20
33865;DHT22;20159;51.072;13.526;2023-02-28T04:04:38;0.00;91.10
33865;DHT22;20159;51.072;13.526;2023-02-28T04:07:11;0.00;91.10
33865;DHT22;20159;51.072;13.526;2023-02-28T04:09:37;-0.10;91.00
33865;DHT22;20159;51.072;13.526;2023-02-28T04:12:03;-0.10;91.00
33865;DHT22;20159;51.072;13.526;2023-02-28T04:14:29;-0.20;90.90
33865;DHT22;20159;51.072;13.526;2023-02-28T04:16:54;2.20;91.50
33865;DHT22;20159;51.072;13.526;2023-02-28T04:19:20;-0.30;91.00
33865;DHT22;20159;51.072;13.526;2023-02-28T04:21:48;-0.40;90.90
33865;DHT22;20159;51.072;13.526;2023-02-28T04:24:16;-0.40;91.00
33865;DHT22;20159;51.072;13.526;2023-02-28T04:26:44;-0.50;90.90
33865;DHT22;20159;51.072;13.526;2023-02-28T04:29:11;-0.50;90.90
33865;DHT22;20159;51.072;13.526;2023-02-28T04:31:37;-0.60;90.90
33865;DHT22;20159;51.072;13.526;2023-02-28T04:34:03;-0.70;91.00
33865;DHT22;20159;51.072;13.526;2023-02-28T04:36:28;-0.70;91.10
33865;DHT22;20159;51.072;13.526;2023-02-28T04:38:54;-0.80;91.20
33865;DHT22;20159;51.072;13.526;2023-02-28T04:41:21;-0.80;91.20
33865;DHT22;20159;51.072;13.526;2023-02-28T04:43:46;-0.90;91.20
33865;DHT22;20159;51.072;13.526;2023-02-28T04:46:12;-0.90;91.20
33865;DHT22;20159;51.072;13.526;2023-02-28T04:48:39;-1.00;91.40
33865;DHT22;20159;51.072;13.526;2023-02-28T04:51:10;-1.00;91.30
33865;DHT22;20159;51.072;13.526;2023-02-28T04:53:37;-1.10;91.20
33865;DHT22;20159;51.072;13.526;2023-02-28T04:56:04;-1.20;91.20
33865;DHT22;20159;51.072;13.526;2023-02-28T04:58:31;-1.20;91.10
33865;DHT22;20159;51.072;13.526;2023-02-28T05:01:17;-1.30;91.00
33865;DHT22;20159;51.072;13.526;2023-02-28T05:03:43;-1.40;90.90
33865;DHT22;20159;51.072;13.526;2023-02-28T05:06:10;-1.40;90.80
33865;DHT22;20159;51.072;13.526;2023-02-28T05:08:36;-1.50;90.70
33865;DHT22;20159;51.072;13.526;2023-02-28T05:11:05;-1.60;90.60
33865;DHT22;20159;51.072;13.526;2023-02-28T05:13:31;0.70;91.00
33865;DHT22;20159;51.072;13.526;2023-02-28T05:15:56;-1.80;90.50
33865;DHT22;20159;51.072;13.526;2023-02-28T05:18:22;-1.80;90.40
33865;DHT22;20159;51.072;13.526;2023-02-28T05:20:47;-1.90;90.50
33865;DHT22;20159;51.072;13.526;2023-02-28T05:23:14;-2.00;90.60
33865;DHT22;20159;51.072;13.526;2023-02-28T05:25:41;-2.00;90.70
33865;DHT22;20159;51.072;13.526;2023-02-28T05:28:07;-2.10;90.70
33865;DHT22;20159;51.072;13.526;2023-02-28T05:30:33;-2.20;90.60
33865;DHT22;20159;51.072;13.526;2023-02-28T05:32:59;-2.20;90.60
33865;DHT22;20159;51.072;13.526;2023-02-28T05:35:25;-2.30;90.70
33865;DHT22;20159;51.072;13.526;2023-02-28T05:37:51;-2.40;90.90
33865;DHT22;20159;51.072;13.526;2023-02-28T05:40:17;-2.40;90.60
33865;DHT22;20159;51.072;13.526;2023-02-28T05:42:43;-2.50;90.60
33865;DHT22;20159;51.072;13.526;2023-02-28T05:45:09;-2.50;90.70
33865;DHT22;20159;51.072;13.526;2023-02-28T05:47:35;-2.60;90.60
33865;DHT22;20159;51.072;13.526;2023-02-28T05:50:00;-2.60;90.80
33865;DHT22;20159;51.072;13.526;2023-02-28T05:52:27;-2.70;90.90
33865;DHT22;20159;51.072;13.526;2023-02-28T05:54:52;-2.70;91.00
33865;DHT22;20159;51.072;13.526;2023-02-28T05:57:18;-2.70;90.90
33865;DHT22;20159;51.072;13.526;2023-02-28T05:59:43;-2.80;90.90
33865;DHT22;20159;51.072;13.526;2023-02-28T06:02:14;-2.80;91.20
33865;DHT22;20159;51.072;13.526;2023-02-28T06:04:40;-2.80;91.40
33865;DHT22;20159;51.072;13.526;2023-02-28T06:07:07;-2.90;91.20
33865;DHT22;20159;51.072;13.526;2023-02-28T06:09:33;-2.90;91.30
33865;DHT22;20159;51.072;13.526;2023-02-28T06:11:59;-2.90;91.20
33865;DHT22;20159;51.072;13.526;2023-02-28T06:14:25;-2.90;91.10
33865;DHT22;20159;51.072;13.526;2023-02-28T06:16:51;-2.90;90.90
33865;DHT22;20159;51.072;13.526;2023-02-28T06:19:17;-2.90;90.80
33865;DHT22;20159;51.072;13.526;2023-02-28T06:21:43;-2.90;91.00
33865;DHT22;20159;51.072;13.526;2023-02-28T06:24:09;-3.00;91.20
33865;DHT22;20159;51.072;13.526;2023-02-28T06:26:35;-3.00;91.30
33865;DHT22;20159;51.072;13.526;2023-02-28T06:29:01;-2.90;91.40
33865;DHT22;20159;51.072;13.526;2023-02-28T06:31:27;-2.90;91.50
33865;DHT22;20159;51.072;13.526;2023-02-28T06:33:54;-2.90;91.50
33865;DHT22;20159;51.072;13.526;2023-02-28T06:36:20;-2.90;91.80
33865;DHT22;20159;51.072;13.526;2023-02-28T06:38:46;-2.90;91.70
33865;DHT22;20159;51.072;13.526;2023-02-28T06:41:16;-2.80;91.70
33865;DHT22;20159;51.072;13.526;2023-02-28T06:43:42;-2.80;91.80
33865;DHT22;20159;51.072;13.526;2023-02-28T06:46:11;-2.70;91.90
33865;DHT22;20159;51.072;13.526;2023-02-28T06:48:37;-2.70;92.00
33865;DHT22;20159;51.072;13.526;2023-02-28T06:51:05;-2.60;92.00
33865;DHT22;20159;51.072;13.526;2023-02-28T06:53:31;-2.50;92.00
33865;DHT22;20159;51.072;13.526;2023-02-28T06:55:56;-2.50;92.00
33865;DHT22;20159;51.072;13.526;2023-02-28T06:58:22;-2.30;92.10
33865;DHT22;20159;51.072;13.526;2023-02-28T07:00:53;-2.40;92.30
33865;DHT22;20159;51.072;13.526;2023-02-28T07:03:19;-2.30;92.50
33865;DHT22;20159;51.072;13.526;2023-02-28T07:05:45;-2.20;92.70
33865;DHT22;20159;51.072;13.526;2023-02-28T07:08:11;-2.10;92.90
33865;DHT22;20159;51.072;13.526;2023-02-28T07:10:37;-1.80;93.60
33865;DHT22;20159;51.072;13.526;2023-02-28T07:13:04;-1.40;94.80
33865;DHT22;20159;51.072;13.526;2023-02-28T07:15:29;-0.90;95.90
33865;DHT22;20159;51.072;13.526;2023-02-28T07:17:55;-0.40;96.60
33865;DHT22;20159;51.072;13.526;2023-02-28T07:20:22;0.10;96.60
33865;DHT22;20159;51.072;13.526;2023-02-28T07:22:48;0.50;96.10
33865;DHT22;20159;51.072;13.526;2023-02-28T07:25:21;0.80;95.40
33865;DHT22;20159;51.072;13.526;2023-02-28T07:27:46;1.10;94.60
33865;DHT22;20159;51.072;13.526;2023-02-28T07:30:12;1.30;93.90
33865;DHT22;20159;51.072;13.526;2023-02-28T07:32:38;1.50;93.40
33865;DHT22;20159;51.072;13.526;2023-02-28T07:35:04;1.60;92.90
33865;DHT22;20159;51.072;13.526;2023-02-28T07:37:30;1.70;92.50
33865;DHT22;20159;51.072;13.526;2023-02-28T07:39:57;1.80;92.50
33865;DHT22;20159;51.072;13.526;2023-02-28T07:42:23;1.80;92.30
33865;DHT22;20159;51.072;13.526;2023-02-28T07:44:48;1.90;92.10
33865;DHT22;20159;51.072;13.526;2023-02-28T07:47:14;2.00;92.50
33865;DHT22;20159;51.072;13.526;2023-02-28T07:49:39;2.30;93.20
33865;DHT22;20159;51.072;13.526;2023-02-28T07:52:06;2.60;94.10
33865;DHT22;20159;51.072;13.526;2023-02-28T07:54:32;3.00;94.30
33865;DHT22;20159;51.072;13.526;2023-02-28T07:56:58;3.40;94.50
33865;DHT22;20159;51.072;13.526;2023-02-28T07:59:24;3.80;93.60
33865;DHT22;20159;51.072;13.526;2023-02-28T08:01:50;4.10;92.80
33865;DHT22;20159;51.072;13.526;2023-02-28T08:04:18;4.40;92.20
33865;DHT22;20159;51.072;13.526;2023-02-28T08:06:44;4.80;91.90
33865;DHT22;20159;51.072;13.526;2023-02-28T08:09:10;5.10;91.40
33865;DHT22;20159;51.072;13.526;2023-02-28T08:11:36;5.50;90.70
33865;DHT22;20159;51.072;13.526;2023-02-28T08:14:02;5.80;89.80
33865;DHT22;20159;51.072;13.526;2023-02-28T08:16:27;6.00;88.20
33865;DHT22;20159;51.072;13.526;2023-02-28T08:18:53;6.20;85.80
33865;DHT22;20159;51.072;13.526;2023-02-28T08:21:20;6.30;84.30
33865;DHT22;20159;51.072;13.526;2023-02-28T08:23:49;6.50;83.90
33865;DHT22;20159;51.072;13.526;2023-02-28T08:26:16;6.50;81.80
33865;DHT22;20159;51.072;13.526;2023-02-28T08:28:42;6.60;81.30
33865;DHT22;20159;51.072;13.526;2023-02-28T08:31:09;6.60;80.70
33865;DHT22;20159;51.072;13.526;2023-02-28T08:33:34;6.60;80.80
33865;DHT22;20159;51.072;13.526;2023-02-28T08:36:00;6.70;79.00
33865;DHT22;20159;51.072;13.526;2023-02-28T08:38:26;6.60;78.00
33865;DHT22;20159;51.072;13.526;2023-02-28T08:40:58;6.60;79.00
33865;DHT22;20159;51.072;13.526;2023-02-28T08:43:24;6.60;77.50
33865;DHT22;20159;51.072;13.526;2023-02-28T08:45:52;6.70;80.10
33865;DHT22;20159;51.072;13.526;2023-02-28T08:48:17;6.90;80.70
33865;DHT22;20159;51.072;13.526;2023-02-28T08:50:43;7.10;81.60
33865;DHT22;20159;51.072;13.526;2023-02-28T08:53:08;7.30;80.70
33865;DHT22;20159;51.072;13.526;2023-02-28T08:55:34;7.50;79.90
33865;DHT22;20159;51.072;13.526;2023-02-28T08:58:00;7.70;78.00
33865;DHT22;20159;51.072;13.526;2023-02-28T09:00:26;7.80;77.80
33865;DHT22;20159;51.072;13.526;2023-02-28T09:02:52;8.10;78.60
33865;DHT22;20159;51.072;13.526;2023-02-28T09:05:17;8.30;77.60
33865;DHT22;20159;51.072;13.526;2023-02-28T09:07:43;8.50;76.50
33865;DHT22;20159;51.072;13.526;2023-02-28T09:10:09;8.60;75.70
33865;DHT22;20159;51.072;13.526;2023-02-28T09:12:35;8.70;74.40
33865;DHT22;20159;51.072;13.526;2023-02-28T09:15:01;8.70;73.60
33865;DHT22;20159;51.072;13.526;2023-02-28T09:17:27;8.70;72.90
33865;DHT22;20159;51.072;13.526;2023-02-28T09:19:52;8.70;72.50
33865;DHT22;20159;51.072;13.526;2023-02-28T09:22:18;8.70;71.80
33865;DHT22;20159;51.072;13.526;2023-02-28T09:24:44;8.70;70.90
33865;DHT22;20159;51.072;13.526;2023-02-28T09:27:10;8.70;71.00
33865;DHT22;20159;51.072;13.526;2023-02-28T09:29:35;8.70;71.50
33865;DHT22;20159;51.072;13.526;2023-02-28T09:32:01;8.70;71.10
33865;DHT22;20159;51.072;13.526;2023-02-28T09:34:27;8.80;71.30
33865;DHT22;20159;51.072;13.526;2023-02-28T09:36:53;8.90;72.00
33865;DHT22;20159;51.072;13.526;2023-02-28T09:39:21;9.10;72.10
33865;DHT22;20159;51.072;13.526;2023-02-28T09:41:50;9.20;71.50
33865;DHT22;20159;51.072;13.526;2023-02-28T09:44:24;9.40;70.30
33865;DHT22;20159;51.072;13.526;2023-02-28T09:46:57;9.60;69.00
33865;DHT22;20159;51.072;13.526;2023-02-28T09:49:40;9.70;68.90
33865;DHT22;20159;51.072;13.526;2023-02-28T09:52:11;9.80;68.20
33865;DHT22;20159;51.072;13.526;2023-02-28T09:54:37;10.00;65.60
33865;DHT22;20159;51.072;13.526;2023-02-28T09:57:19;10.00;66.40
33865;DHT22;20159;51.072;13.526;2023-02-28T10:00:10;9.90;64.90
33865;DHT22;20159;51.072;13.526;2023-02-28T10:05:34;9.70;65.30
33865;DHT22;20159;51.072;13.526;2023-02-28T10:08:14;9.60;65.70
33865;DHT22;20159;51.072;13.526;2023-02-28T10:10:47;9.60;63.50
33865;DHT22;20159;51.072;13.526;2023-02-28T10:15:47;9.50;63.30
33865;DHT22;20159;51.072;13.526;2023-02-28T10:18:18;9.40;63.20
33865;DHT22;20159;51.072;13.526;2023-02-28T10:20:46;9.30;61.80
33865;DHT22;20159;51.072;13.526;2023-02-28T10:25:54;9.10;61.60
33865;DHT22;20159;51.072;13.526;2023-02-28T10:28:21;8.90;60.70
33865;DHT22;20159;51.072;13.526;2023-02-28T10:30:49;8.90;61.60
33865;DHT22;20159;51.072;13.526;2023-02-28T10:33:30;8.80;61.30
33865;DHT22;20159;51.072;13.526;2023-02-28T10:35:58;8.70;60.90
33865;DHT22;20159;51.072;13.526;2023-02-28T10:38:33;8.60;61.40
33865;DHT22;20159;51.072;13.526;2023-02-28T10:41:16;8.50;61.40
33865;DHT22;20159;51.072;13.526;2023-02-28T10:43:43;8.40;60.90
33865;DHT22;20159;51.072;13.526;2023-02-28T10:48:56;8.10;61.50
33865;DHT22;20159;51.072;13.526;2023-02-28T10:51:24;7.90;60.10
33865;DHT22;20159;51.072;13.526;2023-02-28T10:53:51;7.90;60.70
33865;DHT22;20159;51.072;13.526;2023-02-28T10:56:20;7.70;61.70
33865;DHT22;20159;51.072;13.526;2023-02-28T11:01:42;7.30;61.10
33865;DHT22;20159;51.072;13.526;2023-02-28T11:04:39;7.10;62.10
33865;DHT22;20159;51.072;13.526;2023-02-28T11:07:22;6.90;61.40
33865;DHT22;20159;51.072;13.526;2023-02-28T11:09:50;6.70;61.00
33865;DHT22;20159;51.072;13.526;2023-02-28T11:12:22;6.50;62.50
33865;DHT22;20159;51.072;13.526;2023-02-28T11:14:58;6.40;62.40
33865;DHT22;20159;51.072;13.526;2023-02-28T11:17:28;6.20;63.10
33865;DHT22;20159;51.072;13.526;2023-02-28T11:19:57;6.10;63.90
33865;DHT22;20159;51.072;13.526;2023-02-28T11:22:28;6.00;63.70
33865;DHT22;20159;51.072;13.526;2023-02-28T11:24:57;5.90;64.20
33865;DHT22;20159;51.072;13.526;2023-02-28T11:29:56;5.70;64.90
33865;DHT22;20159;51.072;13.526;2023-02-28T11:32:24;6.00;65.50
33865;DHT22;20159;51.072;13.526;2023-02-28T11:37:38;5.80;66.50
33865;DHT22;20159;51.072;13.526;2023-02-28T11:40:14;5.90;67.40
33865;DHT22;20159;51.072;13.526;2023-02-28T11:42:57;6.00;67.10
33865;DHT22;20159;51.072;13.526;2023-02-28T11:48:23;6.20;67.50
33865;DHT22;20159;51.072;13.526;2023-02-28T11:51:17;6.30;67.30
33865;DHT22;20159;51.072;13.526;2023-02-28T11:56:37;6.50;67.00
33865;DHT22;20159;51.072;13.526;2023-02-28T11:59:20;6.60;67.30
33865;DHT22;20159;51.072;13.526;2023-02-28T12:05:23;6.60;66.10
33865;DHT22;20159;51.072;13.526;2023-02-28T12:08:02;6.70;65.90
33865;DHT22;20159;51.072;13.526;2023-02-28T12:10:37;6.90;66.30
33865;DHT22;20159;51.072;13.526;2023-02-28T12:13:21;7.00;65.60
33865;DHT22;20159;51.072;13.526;2023-02-28T12:16:20;7.20;64.40
33865;DHT22;20159;51.072;13.526;2023-02-28T12:18:53;7.40;64.80
33865;DHT22;20159;51.072;13.526;2023-02-28T12:21:31;7.60;66.00
33865;DHT22;20159;51.072;13.526;2023-02-28T12:27:02;7.90;65.00
33865;DHT22;20159;51.072;13.526;2023-02-28T12:29:30;7.90;64.70
33865;DHT22;20159;51.072;13.526;2023-02-28T12:34:46;8.20;64.20
33865;DHT22;20159;51.072;13.526;2023-02-28T12:37:22;8.30;66.00
33865;DHT22;20159;51.072;13.526;2023-02-28T12:39:56;8.30;64.10
33865;DHT22;20159;51.072;13.526;2023-02-28T12:42:30;8.40;62.70
33865;DHT22;20159;51.072;13.526;2023-02-28T12:45:03;8.50;63.20
33865;DHT22;20159;51.072;13.526;2023-02-28T12:47:32;8.50;63.20
33865;DHT22;20159;51.072;13.526;2023-02-28T12:50:06;8.60;63.70
33865;DHT22;20159;51.072;13.526;2023-02-28T12:52:51;8.60;61.70
33865;DHT22;20159;51.072;13.526;2023-02-28T12:58:33;8.60;61.90
33865;DHT22;20159;51.072;13.526;2023-02-28T13:01:32;8.70;61.60
33865;DHT22;20159;51.072;13.526;2023-02-28T13:04:39;8.60;61.20
33865;DHT22;20159;51.072;13.526;2023-02-28T13:07:36;8.60;61.50
33865;DHT22;20159;51.072;13.526;2023-02-28T13:10:07;8.70;61.70
33865;DHT22;20159;51.072;13.526;2023-02-28T13:12:34;8.60;62.50
33865;DHT22;20159;51.072;13.526;2023-02-28T13:15:21;8.70;61.60
33865;DHT22;20159;51.072;13.526;2023-02-28T13:18:00;8.70;61.20
33865;DHT22;20159;51.072;13.526;2023-02-28T13:20:29;8.70;63.20
33865;DHT22;20159;51.072;13.526;2023-02-28T13:22:58;8.70;62.40
33865;DHT22;20159;51.072;13.526;2023-02-28T13:25:50;8.80;62.70
33865;DHT22;20159;51.072;13.526;2023-02-28T13:29:20;8.80;61.50
33865;DHT22;20159;51.072;13.526;2023-02-28T13:31:26;8.80;61.80
33865;DHT22;20159;51.072;13.526;2023-02-28T13:36:26;9.00;61.70
33865;DHT22;20159;51.072;13.526;2023-02-28T13:38:56;9.10;61.00
33865;DHT22;20159;51.072;13.526;2023-02-28T13:49:28;9.20;60.10
33865;DHT22;20159;51.072;13.526;2023-02-28T14:00:26;8.30;58.10
33865;DHT22;20159;51.072;13.526;2023-02-28T14:03:15;9.20;59.50
33865;DHT22;20159;51.072;13.526;2023-02-28T14:05:47;9.20;57.70
33865;DHT22;20159;51.072;13.526;2023-02-28T14:08:19;9.20;59.60
33865;DHT22;20159;51.072;13.526;2023-02-28T14:11:02;9.20;59.10
33865;DHT22;20159;51.072;13.526;2023-02-28T14:16:06;9.10;59.00
33865;DHT22;20159;51.072;13.526;2023-02-28T14:18:36;12.10;60.80
33865;DHT22;20159;51.072;13.526;2023-02-28T14:21:23;9.10;58.30
33865;DHT22;20159;51.072;13.526;2023-02-28T14:24:25;9.00;58.50
33865;DHT22;20159;51.072;13.526;2023-02-28T14:27:26;9.00;59.00
33865;DHT22;20159;51.072;13.526;2023-02-28T14:30:13;9.00;59.20
33865;DHT22;20159;51.072;13.526;2023-02-28T14:33:04;9.00;58.10
33865;DHT22;20159;51.072;13.526;2023-02-28T14:35:56;9.00;57.70
33865;DHT22;20159;51.072;13.526;2023-02-28T14:38:29;10.00;57.80
33865;DHT22;20159;51.072;13.526;2023-02-28T14:40:58;8.90;57.40
33865;DHT22;20159;51.072;13.526;2023-02-28T14:43:27;8.90;57.70
33865;DHT22;20159;51.072;13.526;2023-02-28T14:45:59;8.80;58.10
33865;DHT22;20159;51.072;13.526;2023-02-28T14:48:26;8.70;57.80
33865;DHT22;20159;51.072;13.526;2023-02-28T14:50:55;8.70;57.90
33865;DHT22;20159;51.072;13.526;2023-02-28T14:53:23;8.60;57.60
33865;DHT22;20159;51.072;13.526;2023-02-28T14:55:50;8.50;56.90
33865;DHT22;20159;51.072;13.526;2023-02-28T14:58:22;8.50;57.30
33865;DHT22;20159;51.072;13.526;2023-02-28T15:00:50;8.40;57.50
33865;DHT22;20159;51.072;13.526;2023-02-28T15:05:57;8.20;58.50
33865;DHT22;20159;51.072;13.526;2023-02-28T15:08:23;8.20;57.90
33865;DHT22;20159;51.072;13.526;2023-02-28T15:11:00;8.10;58.50
33865;DHT22;20159;51.072;13.526;2023-02-28T15:16:13;7.90;58.10
33865;DHT22;20159;51.072;13.526;2023-02-28T15:18:54;7.80;58.10
33865;DHT22;20159;51.072;13.526;2023-02-28T15:21:30;7.80;58.00
33865;DHT22;20159;51.072;13.526;2023-02-28T15:24:21;7.70;58.20
33865;DHT22;20159;51.072;13.526;2023-02-28T15:26:56;7.60;58.50
33865;DHT22;20159;51.072;13.526;2023-02-28T15:29:25;7.50;59.00
33865;DHT22;20159;51.072;13.526;2023-02-28T15:31:57;7.40;59.70
33865;DHT22;20159;51.072;13.526;2023-02-28T15:34:37;7.30;59.80
33865;DHT22;20159;51.072;13.526;2023-02-28T15:39:53;7.10;60.70
33865;DHT22;20159;51.072;13.526;2023-02-28T15:42:20;7.00;60.20
33865;DHT22;20159;51.072;13.526;2023-02-28T15:44:46;6.90;60.30
33865;DHT22;20159;51.072;13.526;2023-02-28T15:47:20;6.80;61.30
33865;DHT22;20159;51.072;13.526;2023-02-28T15:49:55;6.60;61.30
33865;DHT22;20159;51.072;13.526;2023-02-28T15:52:34;6.50;61.20
33865;DHT22;20159;51.072;13.526;2023-02-28T15:55:18;6.40;60.90
33865;DHT22;20159;51.072;13.526;2023-02-28T15:57:46;6.30;61.90
33865;DHT22;20159;51.072;13.526;2023-02-28T16:00:16;6.30;62.00
33865;DHT22;20159;51.072;13.526;2023-02-28T16:02:43;6.10;62.50
33865;DHT22;20159;51.072;13.526;2023-02-28T16:07:39;5.80;62.50
33865;DHT22;20159;51.072;13.526;2023-02-28T16:10:06;5.70;62.70
33865;DHT22;20159;51.072;13.526;2023-02-28T16:12:36;5.70;63.50
33865;DHT22;20159;51.072;13.526;2023-02-28T16:15:07;5.50;64.10
33865;DHT22;20159;51.072;13.526;2023-02-28T16:17:35;5.40;63.80
33865;DHT22;20159;51.072;13.526;2023-02-28T16:20:12;5.40;64.30
33865;DHT22;20159;51.072;13.526;2023-02-28T16:22:38;5.30;65.60
33865;DHT22;20159;51.072;13.526;2023-02-28T16:25:04;5.20;65.20
33865;DHT22;20159;51.072;13.526;2023-02-28T16:27:35;5.10;65.80
33865;DHT22;20159;51.072;13.526;2023-02-28T16:30:03;5.00;66.50
33865;DHT22;20159;51.072;13.526;2023-02-28T16:32:31;4.90;66.20
33865;DHT22;20159;51.072;13.526;2023-02-28T16:34:57;4.80;65.90
33865;DHT22;20159;51.072;13.526;2023-02-28T16:37:22;4.70;66.70
33865;DHT22;20159;51.072;13.526;2023-02-28T16:39:48;4.60;66.50
33865;DHT22;20159;51.072;13.526;2023-02-28T16:42:20;4.50;66.80
33865;DHT22;20159;51.072;13.526;2023-02-28T16:44:47;4.40;67.50
33865;DHT22;20159;51.072;13.526;2023-02-28T16:47:13;4.30;67.50
33865;DHT22;20159;51.072;13.526;2023-02-28T16:49:38;4.20;67.40
33865;DHT22;20159;51.072;13.526;2023-02-28T16:52:07;4.10;67.90
33865;DHT22;20159;51.072;13.526;2023-02-28T16:54:33;4.00;67.80
33865;DHT22;20159;51.072;13.526;2023-02-28T16:56:59;3.90;68.30
33865;DHT22;20159;51.072;13.526;2023-02-28T16:59:26;3.80;68.70
33865;DHT22;20159;51.072;13.526;2023-02-28T17:01:53;3.70;68.80
33865;DHT22;20159;51.072;13.526;2023-02-28T17:04:18;3.60;69.40
33865;DHT22;20159;51.072;13.526;2023-02-28T17:06:44;3.50;69.80
33865;DHT22;20159;51.072;13.526;2023-02-28T17:09:21;3.40;69.90
33865;DHT22;20159;51.072;13.526;2023-02-28T17:11:47;6.30;73.60